Manchester Center, VT (05255)

5:54 PM EST on December 02, 2016 (GMT -0500)
Zoey's Deli Weather Station | | Change Station

Elev 712 ft 43.17 °N, 73.05 °W | Updated 4 minutes ago

Overcast
Overcast
43.6 °F
Feels Like 44 °F
N
3.0
Wind Variable Wind from West
Gusts 21.0 mph

Today
High -- | Low -- °F
--% Chance of Precip.
Yesterday
High -- | Low -- °F
Precip. -- in
Pressure 29.78 in
Visibility 10.0 miles
Clouds Mostly Cloudy 4400 ft
Overcast 5000 ft
Windchill 44 °F
Dew Point 31 °F
Humidity 60%
Rainfall 0.00 in
Snow Depth Not available.
7:05 AM 4:17 PM
Waxing Crescent, 11% visible
METAR KDDH 022154Z AUTO VRB04KT 10SM BKN044 OVC050 06/M03 A2976 RMK AO2 SLP083 T00611028
Pressure 29.78 in
Visibility 10.0 miles
Clouds Mostly Cloudy 4400 ft
Overcast 5000 ft
Windchill 44 °F
Dew Point 31 °F
Humidity 60%
Rainfall 0.00 in
Snow Depth Not available.
7:05 AM 4:17 PM
Waxing Crescent, 11% visible
METAR KDDH 022154Z AUTO VRB04KT 10SM BKN044 OVC050 06/M03 A2976 RMK AO2 SLP083 T00611028

10-Day Weather Forecast

Almanac

Astronomy

Dec. 02, 2016 Rise Set
Actual Time
Civil Twilight
Nautical Twilight
Astronomical Twilight
Moon
Length of Visible Light
Length of Day
Tomorrow will be .
, % of the Moon is Illuminated

Today's Extremes

State Highs State Lows

Community

WunderPhotos

Upload Photos

1,955,368 photos uploaded!

WunderBlog® & News

Nearby

Air Quality

  Air Quality AQ Index Pollutant
Not available.

Snow Depth

Station Depth Elevation

Earthquake Activity

City Distance Mag. Time & Date
Minimum magnitude displayed is 2.5.

Coastal Water Temperatures

Place Temperature

Stations

Nearby Weather Stations

Station Location Temp. Windchill Dew Point Humidity Wind Precip. Elev Updated Type
                   

Watches & Warnings

There are currently no watches in effect.